createdAt,value
2023-06-29T00:01:59.788Z,21.50
2023-06-29T00:04:27.281Z,21.40
2023-06-29T00:06:55.603Z,21.40
2023-06-29T00:09:23.791Z,21.40
2023-06-29T00:11:51.100Z,21.50
2023-06-29T00:14:18.199Z,21.50
2023-06-29T00:16:45.256Z,21.30
2023-06-29T00:19:15.604Z,21.40
2023-06-29T00:21:42.649Z,21.40
2023-06-29T00:24:12.288Z,21.40
2023-06-29T00:26:39.497Z,21.40
2023-06-29T00:29:06.903Z,21.60
2023-06-29T00:31:34.301Z,21.70
2023-06-29T00:34:01.500Z,21.60
2023-06-29T00:36:28.511Z,21.80
2023-06-29T00:38:55.633Z,21.80
2023-06-29T00:41:22.608Z,21.90
2023-06-29T00:43:49.753Z,21.80
2023-06-29T00:46:21.263Z,21.80
2023-06-29T00:48:48.968Z,21.70
2023-06-29T00:51:17.373Z,21.60
2023-06-29T00:53:45.230Z,21.50
2023-06-29T00:56:12.432Z,21.50
2023-06-29T00:58:39.573Z,21.50
2023-06-29T01:01:06.296Z,21.20
2023-06-29T01:03:33.698Z,21.20
2023-06-29T01:06:05.656Z,21.00
2023-06-29T01:08:42.227Z,20.90
2023-06-29T01:11:10.396Z,20.80
2023-06-29T01:13:39.223Z,20.80
2023-06-29T01:16:07.431Z,20.80
2023-06-29T01:18:35.412Z,20.60
2023-06-29T01:21:03.626Z,20.60
2023-06-29T01:23:38.065Z,20.80
2023-06-29T01:26:06.483Z,20.90
2023-06-29T01:28:39.210Z,20.80
2023-06-29T01:31:06.674Z,20.90
2023-06-29T01:33:34.478Z,20.70
2023-06-29T01:36:10.741Z,20.80
2023-06-29T01:38:52.813Z,20.70
2023-06-29T01:41:21.653Z,20.70
2023-06-29T01:43:49.388Z,20.60
2023-06-29T01:46:16.763Z,20.70
2023-06-29T01:48:44.118Z,20.50
2023-06-29T01:51:11.452Z,20.40
2023-06-29T01:53:38.666Z,20.50
2023-06-29T01:56:06.014Z,20.50
2023-06-29T01:58:32.788Z,20.50
2023-06-29T02:00:59.542Z,20.40
2023-06-29T02:03:26.642Z,20.50
2023-06-29T02:05:53.598Z,20.50
2023-06-29T02:08:20.570Z,20.40
2023-06-29T02:10:47.619Z,20.40
2023-06-29T02:13:14.773Z,20.50
2023-06-29T02:15:41.935Z,20.50
2023-06-29T02:18:09.324Z,20.50
2023-06-29T02:20:36.244Z,20.40
2023-06-29T02:23:03.330Z,20.30
2023-06-29T02:25:30.342Z,20.20
2023-06-29T02:27:57.353Z,20.10
2023-06-29T02:30:24.146Z,20.00
2023-06-29T02:32:51.116Z,19.80
2023-06-29T02:35:18.075Z,19.70
2023-06-29T02:37:45.175Z,19.80
2023-06-29T02:40:12.633Z,19.80
2023-06-29T02:42:39.867Z,19.90
2023-06-29T02:45:07.563Z,20.00
2023-06-29T02:47:34.647Z,20.10
2023-06-29T02:50:02.365Z,20.20
2023-06-29T02:52:29.480Z,20.30
2023-06-29T02:54:56.621Z,20.20
2023-06-29T02:57:23.575Z,20.20
2023-06-29T02:59:50.273Z,20.20
2023-06-29T03:02:17.354Z,20.10
2023-06-29T03:04:44.378Z,20.20
2023-06-29T03:07:11.420Z,20.30
2023-06-29T03:09:38.409Z,20.20
2023-06-29T03:12:05.825Z,20.20
2023-06-29T03:14:32.915Z,20.20
2023-06-29T03:17:00.018Z,20.10
2023-06-29T03:19:27.033Z,20.10
2023-06-29T03:21:54.420Z,20.20
2023-06-29T03:24:21.546Z,20.30
2023-06-29T03:26:48.653Z,20.10
2023-06-29T03:29:15.671Z,19.90
2023-06-29T03:31:42.699Z,19.80
2023-06-29T03:34:09.718Z,19.80
2023-06-29T03:36:36.789Z,19.70
2023-06-29T03:39:04.865Z,19.70
2023-06-29T03:41:31.831Z,19.70
2023-06-29T03:43:58.770Z,19.70
2023-06-29T03:46:25.816Z,19.80
2023-06-29T03:48:52.944Z,19.70
2023-06-29T03:51:19.887Z,19.70
2023-06-29T03:53:46.927Z,19.80
2023-06-29T03:56:13.997Z,19.80
2023-06-29T03:58:41.050Z,19.70
2023-06-29T04:01:07.813Z,19.80
2023-06-29T04:03:34.894Z,19.80
2023-06-29T04:06:01.798Z,19.90
2023-06-29T04:08:29.202Z,19.80
2023-06-29T04:10:56.313Z,19.80
2023-06-29T04:13:23.293Z,19.70
2023-06-29T04:15:50.383Z,19.80
2023-06-29T04:18:17.559Z,19.80
2023-06-29T04:20:45.404Z,19.80
2023-06-29T04:23:16.588Z,19.80
2023-06-29T04:25:43.999Z,19.90
2023-06-29T04:28:13.585Z,20.10
2023-06-29T04:30:43.889Z,20.10
2023-06-29T04:33:11.793Z,19.90
2023-06-29T04:35:43.748Z,19.90
2023-06-29T04:38:14.336Z,19.90
2023-06-29T04:40:41.447Z,20.10
2023-06-29T04:43:08.426Z,20.30
2023-06-29T04:45:35.546Z,20.20
2023-06-29T04:48:02.740Z,20.40
2023-06-29T04:50:36.296Z,20.40
2023-06-29T04:53:10.965Z,20.30
2023-06-29T04:55:39.007Z,20.50
2023-06-29T04:58:06.672Z,20.60
2023-06-29T05:00:34.061Z,20.70
2023-06-29T05:03:01.632Z,20.70
2023-06-29T05:05:28.614Z,20.60
2023-06-29T05:07:55.647Z,20.70
2023-06-29T05:10:24.316Z,20.90
2023-06-29T05:12:51.459Z,20.90
2023-06-29T05:15:18.518Z,21.00
2023-06-29T05:17:45.678Z,21.00
2023-06-29T05:20:15.274Z,20.80
2023-06-29T05:22:42.030Z,20.90
2023-06-29T05:25:09.351Z,20.90
2023-06-29T05:27:36.489Z,20.90
2023-06-29T05:30:04.060Z,20.80
2023-06-29T05:32:31.487Z,20.90
2023-06-29T05:34:58.532Z,21.00
2023-06-29T05:37:25.943Z,21.00
2023-06-29T05:39:53.020Z,20.90
2023-06-29T05:42:20.073Z,20.90
2023-06-29T05:44:47.111Z,20.80
2023-06-29T05:47:14.115Z,20.90
2023-06-29T05:49:41.227Z,20.90
2023-06-29T05:52:08.329Z,20.90
2023-06-29T05:54:35.424Z,21.20
2023-06-29T05:57:02.392Z,21.30
2023-06-29T05:59:30.972Z,21.20
2023-06-29T06:01:58.294Z,21.10
2023-06-29T06:04:25.862Z,21.10
2023-06-29T06:06:53.062Z,21.20
2023-06-29T06:09:20.094Z,21.20
2023-06-29T06:11:47.121Z,21.20
2023-06-29T06:14:13.853Z,21.20
2023-06-29T06:16:40.796Z,21.40
2023-06-29T06:19:07.642Z,21.50
2023-06-29T06:21:34.344Z,21.30
2023-06-29T06:24:01.068Z,21.30
2023-06-29T06:26:27.803Z,21.30
2023-06-29T06:28:54.522Z,21.30
2023-06-29T06:31:32.758Z,21.40
2023-06-29T06:34:01.447Z,21.40
2023-06-29T06:36:32.233Z,21.30
2023-06-29T06:38:59.710Z,21.30
2023-06-29T06:41:26.573Z,21.40
2023-06-29T06:43:53.404Z,21.60
2023-06-29T06:46:20.379Z,21.60
2023-06-29T06:48:49.178Z,21.70
2023-06-29T06:51:16.203Z,21.60
2023-06-29T06:53:42.935Z,21.40
2023-06-29T06:56:09.779Z,21.30
2023-06-29T06:58:36.615Z,21.50
2023-06-29T07:01:03.500Z,21.70
2023-06-29T07:03:30.348Z,21.90
2023-06-29T07:05:59.066Z,21.70
2023-06-29T07:08:26.169Z,21.70
2023-06-29T07:10:53.129Z,21.90
2023-06-29T07:13:19.876Z,21.90
2023-06-29T07:15:47.600Z,21.90
2023-06-29T07:18:14.319Z,22.00
2023-06-29T07:25:41.121Z,22.00
2023-06-29T07:28:07.950Z,21.70
2023-06-29T07:30:34.813Z,21.50
2023-06-29T07:33:01.806Z,21.60
2023-06-29T07:35:28.709Z,21.90
2023-06-29T07:37:55.489Z,22.10
2023-06-29T07:40:22.987Z,22.00
2023-06-29T07:42:49.811Z,22.10
2023-06-29T07:45:16.566Z,22.30
2023-06-29T07:47:43.548Z,22.40
2023-06-29T07:50:11.909Z,22.60
2023-06-29T07:52:39.068Z,23.00
2023-06-29T07:55:06.001Z,23.50
2023-06-29T08:00:02.476Z,23.10
2023-06-29T08:02:29.314Z,22.90
2023-06-29T08:07:25.865Z,23.20
2023-06-29T08:09:52.720Z,23.00
2023-06-29T08:12:19.470Z,23.00
2023-06-29T08:14:46.187Z,23.10
2023-06-29T08:17:12.885Z,23.10
2023-06-29T08:19:39.658Z,23.30
2023-06-29T08:22:06.517Z,23.50
2023-06-29T08:24:33.268Z,23.60
2023-06-29T08:27:00.144Z,23.50
2023-06-29T08:29:26.994Z,23.60
2023-06-29T08:31:53.827Z,23.70
2023-06-29T08:34:20.689Z,23.70
2023-06-29T08:36:47.668Z,23.70
2023-06-29T08:39:14.964Z,23.60
2023-06-29T08:41:42.604Z,23.70
2023-06-29T08:44:09.401Z,23.40
2023-06-29T08:46:38.652Z,23.20
2023-06-29T08:49:07.656Z,23.20
2023-06-29T08:51:38.077Z,23.50
2023-06-29T08:54:05.071Z,23.50
2023-06-29T08:56:32.262Z,23.60
2023-06-29T08:58:59.102Z,23.90
2023-06-29T09:01:26.058Z,24.00
2023-06-29T09:03:53.316Z,23.70
2023-06-29T09:06:20.776Z,23.80
2023-06-29T09:08:47.653Z,23.60
2023-06-29T09:11:14.542Z,23.60
2023-06-29T09:13:41.338Z,24.00
2023-06-29T09:16:08.481Z,24.10
2023-06-29T09:18:35.556Z,24.30
2023-06-29T09:21:04.440Z,24.20
2023-06-29T09:23:31.342Z,24.20
2023-06-29T09:25:58.580Z,24.20
2023-06-29T09:28:26.988Z,24.60
2023-06-29T09:30:53.839Z,24.60
2023-06-29T09:33:26.564Z,24.80
2023-06-29T09:35:54.362Z,25.20
2023-06-29T09:38:21.592Z,25.40
2023-06-29T09:40:52.580Z,25.80
2023-06-29T09:43:26.903Z,26.60
2023-06-29T09:46:10.896Z,26.50
2023-06-29T09:51:24.360Z,29.60
2023-06-29T09:53:51.621Z,30.80
2023-06-29T09:56:18.872Z,30.20
2023-06-29T09:58:47.452Z,29.50
2023-06-29T10:01:16.788Z,29.50
2023-06-29T10:03:44.849Z,29.80
2023-06-29T10:06:22.859Z,30.20
2023-06-29T10:08:55.475Z,30.00
2023-06-29T10:11:27.843Z,29.90
2023-06-29T10:14:03.878Z,28.90
2023-06-29T10:16:34.281Z,27.40
2023-06-29T10:19:10.806Z,27.00
2023-06-29T10:21:37.926Z,26.60
2023-06-29T10:24:05.701Z,26.60
2023-06-29T10:26:32.918Z,26.90
2023-06-29T10:28:59.880Z,27.50
2023-06-29T10:31:35.724Z,27.30
2023-06-29T10:34:06.790Z,27.10
2023-06-29T10:36:52.898Z,26.70
2023-06-29T10:39:48.639Z,26.40
2023-06-29T10:42:24.288Z,26.80
2023-06-29T10:44:51.354Z,27.20
2023-06-29T10:47:31.757Z,27.40
2023-06-29T10:50:15.027Z,28.00
2023-06-29T10:52:43.816Z,28.90
2023-06-29T10:55:22.057Z,28.60
2023-06-29T10:58:15.864Z,28.60
2023-06-29T11:00:43.480Z,28.50
2023-06-29T11:03:13.379Z,28.30
2023-06-29T11:05:40.444Z,28.70
2023-06-29T11:08:08.390Z,28.90
2023-06-29T11:10:36.077Z,28.90
2023-06-29T11:13:09.093Z,29.10
2023-06-29T11:15:36.209Z,29.00
2023-06-29T11:18:08.006Z,28.90
2023-06-29T11:20:38.757Z,28.40
2023-06-29T11:23:06.160Z,27.90
2023-06-29T11:25:32.997Z,27.50
2023-06-29T11:28:00.181Z,27.50
2023-06-29T11:30:27.014Z,27.40
2023-06-29T11:32:55.089Z,27.30
2023-06-29T11:35:23.228Z,27.10
2023-06-29T11:37:52.354Z,27.20
2023-06-29T11:40:20.445Z,27.40
2023-06-29T11:42:50.158Z,27.70
2023-06-29T11:45:18.386Z,27.70
2023-06-29T11:47:47.801Z,27.20
2023-06-29T11:50:14.686Z,27.10
2023-06-29T11:52:42.480Z,26.70
2023-06-29T11:55:12.098Z,26.80
2023-06-29T11:57:40.236Z,28.30
2023-06-29T12:00:26.965Z,29.40
2023-06-29T12:02:53.992Z,31.20
2023-06-29T12:05:26.273Z,32.60
2023-06-29T12:07:53.111Z,33.00
2023-06-29T12:10:26.198Z,33.80
2023-06-29T12:13:00.328Z,35.30
2023-06-29T12:15:29.022Z,36.40
2023-06-29T12:18:16.627Z,35.70
2023-06-29T12:20:47.181Z,32.50
2023-06-29T12:23:15.384Z,31.20
2023-06-29T12:25:52.899Z,30.30
2023-06-29T12:28:20.208Z,29.70
2023-06-29T12:30:47.070Z,29.40
2023-06-29T12:33:14.749Z,28.20
2023-06-29T12:35:41.669Z,27.80
2023-06-29T12:38:08.536Z,27.50
2023-06-29T12:40:35.674Z,27.30
2023-06-29T12:43:02.559Z,27.10
2023-06-29T12:45:29.478Z,27.30
2023-06-29T12:47:56.482Z,27.60
2023-06-29T12:50:23.272Z,28.90
2023-06-29T12:52:50.265Z,29.80
2023-06-29T12:55:17.471Z,30.10
2023-06-29T12:57:45.242Z,30.10
2023-06-29T13:00:13.715Z,30.80
2023-06-29T13:02:41.605Z,30.10
2023-06-29T13:05:09.223Z,28.90
2023-06-29T13:07:36.987Z,27.70
2023-06-29T13:10:05.223Z,27.40
2023-06-29T13:12:32.371Z,27.00
2023-06-29T13:15:00.335Z,26.50
2023-06-29T13:17:27.277Z,27.00
2023-06-29T13:19:54.158Z,27.00
2023-06-29T13:22:20.944Z,27.30
2023-06-29T13:24:48.348Z,27.50
2023-06-29T13:27:15.502Z,27.50
2023-06-29T13:29:42.335Z,27.60
2023-06-29T13:32:09.720Z,27.70
2023-06-29T13:34:36.509Z,27.60
2023-06-29T13:37:03.544Z,27.70
2023-06-29T13:39:31.012Z,28.10
2023-06-29T13:41:57.829Z,28.40
2023-06-29T13:44:24.623Z,28.70
2023-06-29T13:46:51.601Z,29.00
2023-06-29T13:49:18.507Z,29.60
2023-06-29T13:51:46.975Z,29.80
2023-06-29T13:54:16.342Z,29.40
2023-06-29T13:56:43.667Z,29.60
2023-06-29T13:59:10.940Z,29.60
2023-06-29T14:01:39.783Z,29.80
2023-06-29T14:04:08.489Z,29.30
2023-06-29T14:06:41.393Z,28.20
2023-06-29T14:09:10.376Z,27.90
2023-06-29T14:11:38.382Z,27.60
2023-06-29T14:14:05.433Z,27.80
2023-06-29T14:16:32.931Z,27.80
2023-06-29T14:19:01.472Z,28.10
2023-06-29T14:21:29.036Z,28.20
2023-06-29T14:23:56.394Z,27.50
2023-06-29T14:26:23.776Z,26.60
2023-06-29T14:28:50.570Z,26.10
2023-06-29T14:31:18.697Z,25.90
2023-06-29T14:33:46.271Z,25.70
2023-06-29T14:36:13.745Z,25.50
2023-06-29T14:38:40.598Z,25.50
2023-06-29T14:41:07.350Z,25.50
2023-06-29T14:43:34.179Z,25.70
2023-06-29T14:46:00.951Z,26.10
2023-06-29T14:48:27.840Z,26.40
2023-06-29T14:50:55.051Z,26.20
2023-06-29T14:53:22.947Z,26.30
2023-06-29T14:55:50.152Z,26.30
2023-06-29T14:58:17.889Z,25.70
2023-06-29T15:00:45.929Z,25.30
2023-06-29T15:03:13.032Z,25.20
2023-06-29T15:05:40.037Z,25.40
2023-06-29T15:08:06.777Z,25.70
2023-06-29T15:10:33.589Z,25.50
2023-06-29T15:13:00.351Z,24.50
2023-06-29T15:15:27.198Z,24.20
2023-06-29T15:17:54.026Z,23.70
2023-06-29T15:20:20.927Z,23.40
2023-06-29T15:22:47.635Z,23.20
2023-06-29T15:25:14.520Z,23.00
2023-06-29T15:27:41.650Z,23.00
2023-06-29T15:30:08.810Z,23.00
2023-06-29T15:32:35.864Z,23.20
2023-06-29T15:35:04.021Z,23.40
2023-06-29T15:37:34.559Z,23.10
2023-06-29T15:40:02.406Z,22.60
2023-06-29T15:42:29.652Z,22.20
2023-06-29T15:44:56.636Z,22.00
2023-06-29T15:47:24.674Z,21.80
2023-06-29T15:49:52.426Z,21.70
2023-06-29T15:52:19.450Z,21.60
2023-06-29T15:54:47.266Z,21.60
2023-06-29T15:57:14.113Z,21.70
2023-06-29T15:59:40.952Z,21.90
2023-06-29T16:02:08.766Z,22.00
2023-06-29T16:04:36.531Z,22.10
2023-06-29T16:07:08.356Z,22.10
2023-06-29T16:09:38.221Z,22.00
2023-06-29T16:12:06.266Z,22.10
2023-06-29T16:14:33.515Z,22.00
2023-06-29T16:17:02.000Z,22.20
2023-06-29T16:19:28.848Z,22.20
2023-06-29T16:21:55.620Z,22.30
2023-06-29T16:24:22.331Z,22.70
2023-06-29T16:26:49.859Z,22.90
2023-06-29T16:29:18.509Z,23.10
2023-06-29T16:31:47.678Z,23.10
2023-06-29T16:34:15.152Z,23.00
2023-06-29T16:36:42.236Z,22.90
2023-06-29T16:39:09.301Z,23.00
2023-06-29T16:41:37.528Z,23.00
2023-06-29T16:44:04.741Z,22.60
2023-06-29T16:46:31.863Z,22.40
2023-06-29T16:49:01.568Z,22.20
2023-06-29T16:51:29.976Z,22.10
2023-06-29T16:54:00.343Z,22.10
2023-06-29T16:56:30.183Z,22.30
2023-06-29T16:58:57.396Z,22.50
2023-06-29T17:01:24.447Z,22.50
2023-06-29T17:03:51.443Z,22.40
2023-06-29T17:06:18.359Z,21.80
2023-06-29T17:08:46.045Z,21.10
2023-06-29T17:11:13.116Z,20.70
2023-06-29T17:13:40.698Z,20.70
2023-06-29T17:16:08.177Z,20.40
2023-06-29T17:18:35.721Z,20.30
2023-06-29T17:21:02.945Z,20.20
2023-06-29T17:23:29.882Z,20.30
2023-06-29T17:25:57.007Z,20.10
2023-06-29T17:28:25.348Z,20.00
2023-06-29T17:30:53.031Z,19.90
2023-06-29T17:33:21.728Z,19.90
2023-06-29T17:35:49.004Z,19.90
2023-06-29T17:38:16.154Z,19.70
2023-06-29T17:40:43.250Z,19.50
2023-06-29T17:43:10.246Z,19.30
2023-06-29T17:45:38.273Z,19.10
2023-06-29T17:48:09.768Z,18.90
2023-06-29T17:50:37.551Z,18.70
2023-06-29T17:53:05.823Z,18.70
2023-06-29T17:55:33.013Z,18.60
2023-06-29T17:58:00.685Z,18.60
2023-06-29T18:00:27.530Z,18.70
2023-06-29T18:02:54.407Z,18.60
2023-06-29T18:05:21.508Z,18.60
2023-06-29T18:07:49.679Z,18.70
2023-06-29T18:10:16.693Z,18.60
2023-06-29T18:12:44.860Z,18.60
2023-06-29T18:15:12.788Z,18.60
2023-06-29T18:17:40.088Z,18.40
2023-06-29T18:20:07.797Z,18.30
2023-06-29T18:22:35.204Z,18.20
2023-06-29T18:25:02.422Z,18.20
2023-06-29T18:27:30.591Z,18.20
2023-06-29T18:29:57.297Z,18.20
2023-06-29T18:32:24.273Z,18.30
2023-06-29T18:34:53.383Z,18.30
2023-06-29T18:37:21.237Z,18.10
2023-06-29T18:39:49.049Z,17.90
2023-06-29T18:42:18.197Z,17.90
2023-06-29T18:44:45.245Z,17.70
2023-06-29T18:47:14.932Z,17.60
2023-06-29T18:49:52.154Z,17.40
2023-06-29T18:52:20.624Z,17.50
2023-06-29T18:54:48.600Z,17.40
2023-06-29T18:57:15.764Z,17.40
2023-06-29T18:59:43.698Z,17.20
2023-06-29T19:02:11.010Z,17.20
2023-06-29T19:04:37.968Z,17.30
2023-06-29T19:07:05.304Z,17.30
2023-06-29T19:09:32.657Z,17.30
2023-06-29T19:12:03.327Z,17.40
2023-06-29T19:14:31.155Z,17.50
2023-06-29T19:16:58.236Z,17.30
2023-06-29T19:19:26.133Z,17.30
2023-06-29T19:21:53.419Z,17.10
2023-06-29T19:24:20.767Z,17.10
2023-06-29T19:26:50.661Z,17.00
2023-06-29T19:29:20.790Z,17.10
2023-06-29T19:31:47.875Z,17.00
2023-06-29T19:34:14.993Z,17.00
2023-06-29T19:36:42.055Z,17.00
2023-06-29T19:39:10.408Z,17.00
2023-06-29T19:41:37.394Z,16.90
2023-06-29T19:44:05.505Z,17.00
2023-06-29T19:46:32.863Z,16.90
2023-06-29T19:49:00.011Z,17.00
2023-06-29T19:51:34.451Z,17.10
2023-06-29T19:54:02.006Z,17.10
2023-06-29T19:56:29.257Z,17.10
2023-06-29T19:58:56.447Z,17.30
2023-06-29T20:01:23.304Z,17.40
2023-06-29T20:04:42.628Z,17.20
2023-06-29T20:07:27.015Z,17.30
2023-06-29T20:09:54.058Z,17.30
2023-06-29T20:12:46.389Z,17.40
2023-06-29T20:15:33.619Z,17.40
2023-06-29T20:18:01.680Z,17.30
2023-06-29T20:20:29.567Z,17.20
2023-06-29T20:23:02.080Z,17.10
2023-06-29T20:25:35.167Z,17.10
2023-06-29T20:28:02.128Z,16.90
2023-06-29T20:30:30.032Z,17.10
2023-06-29T20:32:57.988Z,17.20
2023-06-29T20:35:24.942Z,17.20
2023-06-29T20:37:51.657Z,17.20
2023-06-29T20:40:19.637Z,17.20
2023-06-29T20:42:48.571Z,17.30
2023-06-29T20:45:17.662Z,17.30
2023-06-29T20:47:44.809Z,17.30
2023-06-29T20:50:12.193Z,17.20
2023-06-29T20:52:40.524Z,17.20
2023-06-29T20:55:08.931Z,17.10
2023-06-29T20:57:38.448Z,17.00
2023-06-29T21:00:08.025Z,17.10
2023-06-29T21:02:36.337Z,17.20
2023-06-29T21:05:05.735Z,17.10
2023-06-29T21:07:32.750Z,17.30
2023-06-29T21:10:01.776Z,17.40
2023-06-29T21:12:29.209Z,17.50
2023-06-29T21:14:56.312Z,17.70
2023-06-29T21:17:24.772Z,17.70
2023-06-29T21:19:52.855Z,17.60
2023-06-29T21:22:19.952Z,17.50
2023-06-29T21:24:49.789Z,17.60
2023-06-29T21:27:19.931Z,17.60
2023-06-29T21:29:49.396Z,17.60
2023-06-29T21:32:16.862Z,17.60
2023-06-29T21:34:49.697Z,17.70
2023-06-29T21:37:16.972Z,17.80
2023-06-29T21:39:44.191Z,17.90
2023-06-29T21:42:12.209Z,17.90
2023-06-29T21:44:39.235Z,17.80
2023-06-29T21:47:06.425Z,17.70
2023-06-29T21:49:33.453Z,17.90
2023-06-29T21:52:00.309Z,17.90
2023-06-29T21:54:27.319Z,17.80
2023-06-29T21:56:54.471Z,17.70
2023-06-29T21:59:21.469Z,17.70
2023-06-29T22:01:48.546Z,17.70
2023-06-29T22:04:15.619Z,17.70
2023-06-29T22:06:42.599Z,17.60
2023-06-29T22:09:09.642Z,17.70
2023-06-29T22:11:39.823Z,17.70
2023-06-29T22:14:12.168Z,17.70
2023-06-29T22:16:39.071Z,17.70
2023-06-29T22:19:06.308Z,17.80
2023-06-29T22:21:35.079Z,17.70
2023-06-29T22:24:04.476Z,17.80
2023-06-29T22:26:33.399Z,17.70
2023-06-29T22:29:00.636Z,17.60
2023-06-29T22:31:40.158Z,17.50
2023-06-29T22:34:15.747Z,17.50
2023-06-29T22:36:48.610Z,17.50
2023-06-29T22:39:16.400Z,17.60
2023-06-29T22:41:48.862Z,17.90
2023-06-29T22:44:16.624Z,18.10
2023-06-29T22:46:43.795Z,18.10
2023-06-29T22:49:10.516Z,17.80
2023-06-29T22:51:37.358Z,17.90
2023-06-29T22:54:05.389Z,17.80
2023-06-29T22:56:32.390Z,17.70
2023-06-29T22:59:12.853Z,17.70
2023-06-29T23:01:41.138Z,17.80
2023-06-29T23:04:08.710Z,18.00
2023-06-29T23:06:40.709Z,18.00
2023-06-29T23:09:11.913Z,17.90
2023-06-29T23:11:42.224Z,17.80
2023-06-29T23:14:18.630Z,17.50
2023-06-29T23:16:47.873Z,17.50
2023-06-29T23:19:15.210Z,17.40
2023-06-29T23:21:42.321Z,17.40
2023-06-29T23:24:18.132Z,17.50
2023-06-29T23:26:47.226Z,17.20
2023-06-29T23:29:18.384Z,17.00
2023-06-29T23:31:48.473Z,16.80
2023-06-29T23:34:15.441Z,16.90
2023-06-29T23:36:42.412Z,17.00
2023-06-29T23:39:13.473Z,17.10
2023-06-29T23:41:41.452Z,16.90
2023-06-29T23:44:11.158Z,16.90
2023-06-29T23:46:46.540Z,16.80
2023-06-29T23:49:17.063Z,16.70
2023-06-29T23:51:51.567Z,16.70
2023-06-29T23:54:19.592Z,16.80
2023-06-29T23:56:47.556Z,16.90
2023-06-29T23:59:14.499Z,17.00
